Time,TemperatureF,DewpointF,PressureIn,WindDirection,WindDirectionDegrees,WindSpeedMPH,WindSpeedGustMPH,Humidity,HourlyPrecipIn,Conditions,Clouds,dailyrainin,SoftwareType,DateUTC
2013-01-21 00:00:00,20.5,10.9,30.24,SE,131,0.0,1.0,66,0.00,,,0.00,Wunderground v.1.15,2013-01-21 07:00:00,
2013-01-21 00:10:00,20.1,10.6,30.24,ENE,67,0.0,3.0,66,0.00,,,0.00,Wunderground v.1.15,2013-01-21 07:10:00,
2013-01-21 00:15:00,20.3,10.4,30.24,West,259,0.0,3.0,65,0.00,,,0.00,Wunderground v.1.15,2013-01-21 07:15:00,
2013-01-21 00:20:00,20.5,10.6,30.24,NNE,26,1.0,3.0,65,0.00,,,0.00,Wunderground v.1.15,2013-01-21 07:20:00,
2013-01-21 00:25:00,20.3,10.7,30.24,NE,53,1.0,3.0,66,0.00,,,0.00,Wunderground v.1.15,2013-01-21 07:25:00,
2013-01-21 00:35:00,19.9,10.0,30.24,SE,124,0.0,3.0,65,0.00,,,0.00,Wunderground v.1.15,2013-01-21 07:35:00,
2013-01-21 00:40:00,19.7,10.5,30.24,SE,124,0.0,3.0,67,0.00,,,0.00,Wunderground v.1.15,2013-01-21 07:40:00,
2013-01-21 00:45:00,19.8,10.6,30.24,ESE,103,0.0,3.0,67,0.00,,,0.00,Wunderground v.1.15,2013-01-21 07:45:00,
2013-01-21 00:50:00,19.7,10.2,30.24,NNW,338,0.0,3.0,66,0.00,,,0.00,Wunderground v.1.15,2013-01-21 07:50:00,
2013-01-21 00:55:00,19.4,9.9,30.24,WNW,293,0.0,3.0,66,0.00,,,0.00,Wunderground v.1.15,2013-01-21 07:55:00,
2013-01-21 01:00:00,19.0,9.5,30.25,WNW,293,0.0,3.0,66,0.00,,,0.00,Wunderground v.1.15,2013-01-21 08:00:00,
2013-01-21 01:10:00,18.4,9.3,30.25,WSW,238,0.0,2.0,67,0.00,,,0.00,Wunderground v.1.15,2013-01-21 08:10:00,
2013-01-21 01:15:00,18.4,9.9,30.25,WSW,238,0.0,2.0,69,0.00,,,0.00,Wunderground v.1.15,2013-01-21 08:15:00,
2013-01-21 01:20:00,18.7,10.2,30.25,WSW,243,0.0,2.0,69,0.00,,,0.00,Wunderground v.1.15,2013-01-21 08:20:00,
2013-01-21 01:25:00,18.7,9.9,30.24,WSW,243,1.0,2.0,68,0.00,,,0.00,Wunderground v.1.15,2013-01-21 08:25:00,
2013-01-21 01:30:00,18.8,10.3,30.25,WSW,243,0.0,2.0,69,0.00,,,0.00,Wunderground v.1.15,2013-01-21 08:30:00,
2013-01-21 01:35:00,18.9,9.7,30.25,WSW,243,0.0,2.0,67,0.00,,,0.00,Wunderground v.1.15,2013-01-21 08:35:00,
2013-01-21 01:45:00,18.4,9.6,30.25,ENE,74,1.0,2.0,68,0.00,,,0.00,Wunderground v.1.15,2013-01-21 08:45:00,
2013-01-21 01:50:00,18.0,9.2,30.25,WSW,239,1.0,1.0,68,0.00,,,0.00,Wunderground v.1.15,2013-01-21 08:50:00,
2013-01-21 01:55:00,17.7,8.9,30.25,WSW,249,1.0,2.0,68,0.00,,,0.00,Wunderground v.1.15,2013-01-21 08:55:00,
2013-01-21 02:00:00,17.8,9.3,30.25,NNE,19,1.0,2.0,69,0.00,,,0.00,Wunderground v.1.15,2013-01-21 09:00:00,
2013-01-21 02:05:00,17.6,9.2,30.25,ENE,61,1.0,3.0,69,0.00,,,0.00,Wunderground v.1.15,2013-01-21 09:05:00,
2013-01-21 02:15:00,17.9,9.8,30.25,ENE,63,0.0,3.0,70,0.00,,,0.00,Wunderground v.1.15,2013-01-21 09:15:00,
2013-01-21 02:25:00,17.7,9.6,30.24,ENE,57,0.0,3.0,70,0.00,,,0.00,Wunderground v.1.15,2013-01-21 09:25:00,
2013-01-21 02:30:00,17.5,9.1,30.24,WSW,249,0.0,3.0,69,0.00,,,0.00,Wunderground v.1.15,2013-01-21 09:30:00,
2013-01-21 02:35:00,17.5,9.4,30.24,ENE,64,1.0,3.0,70,0.00,,,0.00,Wunderground v.1.15,2013-01-21 09:35:00,
2013-01-21 02:40:00,17.7,9.6,30.24,NW,307,1.0,1.0,70,0.00,,,0.00,Wunderground v.1.15,2013-01-21 09:40:00,
2013-01-21 02:45:00,18.1,10.3,30.24,South,191,0.0,3.0,71,0.00,,,0.00,Wunderground v.1.15,2013-01-21 09:45:00,
2013-01-21 02:50:00,18.1,9.6,30.24,SE,142,0.0,3.0,69,0.00,,,0.00,Wunderground v.1.15,2013-01-21 09:50:00,
2013-01-21 02:55:00,17.9,9.4,30.24,SE,141,0.0,3.0,69,0.00,,,0.00,Wunderground v.1.15,2013-01-21 09:55:00,
2013-01-21 03:00:00,17.9,9.8,30.24,SE,141,0.0,3.0,70,0.00,,,0.00,Wunderground v.1.15,2013-01-21 10:00:00,
2013-01-21 03:05:00,17.4,9.0,30.25,ESE,120,0.0,3.0,69,0.00,,,0.00,Wunderground v.1.15,2013-01-21 10:05:00,
2013-01-21 03:15:00,17.4,9.3,30.25,ENE,75,0.0,2.0,70,0.00,,,0.00,Wunderground v.1.15,2013-01-21 10:15:00,
2013-01-21 03:20:00,17.2,9.1,30.25,WNW,283,0.0,2.0,70,0.00,,,0.00,Wunderground v.1.15,2013-01-21 10:20:00,
2013-01-21 03:25:00,17.1,9.0,30.25,WNW,285,0.0,2.0,70,0.00,,,0.00,Wunderground v.1.15,2013-01-21 10:25:00,
2013-01-21 03:30:00,16.8,9.0,30.25,North,352,0.0,2.0,71,0.00,,,0.00,Wunderground v.1.15,2013-01-21 10:30:00,
2013-01-21 03:35:00,16.9,9.4,30.25,WNW,297,0.0,2.0,72,0.00,,,0.00,Wunderground v.1.15,2013-01-21 10:35:00,
2013-01-21 03:40:00,17.6,10.1,30.25,NNE,18,0.0,2.0,72,0.00,,,0.00,Wunderground v.1.15,2013-01-21 10:40:00,
2013-01-21 03:50:00,17.4,9.6,30.25,West,262,0.0,2.0,71,0.00,,,0.00,Wunderground v.1.15,2013-01-21 10:50:00,
2013-01-21 04:00:00,16.7,9.2,30.26,West,262,0.0,2.0,72,0.00,,,0.00,Wunderground v.1.15,2013-01-21 11:00:00,
2013-01-21 04:05:00,16.3,8.5,30.26,East,88,0.0,2.0,71,0.00,,,0.00,Wunderground v.1.15,2013-01-21 11:05:00,
2013-01-21 04:15:00,16.1,9.3,30.27,East,86,0.0,1.0,74,0.00,,,0.00,Wunderground v.1.15,2013-01-21 11:15:00,
2013-01-21 04:20:00,16.4,9.3,30.27,East,86,0.0,1.0,73,0.00,,,0.00,Wunderground v.1.15,2013-01-21 11:20:00,
2013-01-21 04:25:00,16.2,8.4,30.27,East,86,0.0,1.0,71,0.00,,,0.00,Wunderground v.1.15,2013-01-21 11:25:00,
2013-01-21 04:30:00,15.9,8.5,30.27,East,86,0.0,1.0,72,0.00,,,0.00,Wunderground v.1.15,2013-01-21 11:30:00,
2013-01-21 04:35:00,15.6,8.5,30.27,East,86,0.0,1.0,73,0.00,,,0.00,Wunderground v.1.15,2013-01-21 11:35:00,
2013-01-21 04:45:00,16.4,9.3,30.27,East,91,1.0,1.0,73,0.00,,,0.00,Wunderground v.1.15,2013-01-21 11:45:00,
2013-01-21 04:50:00,16.6,9.4,30.26,East,91,1.0,1.0,73,0.00,,,0.00,Wunderground v.1.15,2013-01-21 11:50:00,
2013-01-21 05:00:00,15.6,7.9,30.27,SSE,163,1.0,1.0,71,0.00,,,0.00,Wunderground v.1.15,2013-01-21 12:00:00,
2013-01-21 05:05:00,15.3,8.2,30.26,SW,236,0.0,2.0,73,0.00,,,0.00,Wunderground v.1.15,2013-01-21 12:05:00,
2013-01-21 05:15:00,15.8,9.3,30.27,NE,44,1.0,3.0,75,0.00,,,0.00,Wunderground v.1.15,2013-01-21 12:15:00,
2013-01-21 05:20:00,16.6,9.4,30.26,ENE,68,1.0,1.0,73,0.00,,,0.00,Wunderground v.1.15,2013-01-21 12:20:00,
2013-01-21 05:25:00,16.4,9.6,30.26,West,280,2.0,2.0,74,0.00,,,0.00,Wunderground v.1.15,2013-01-21 12:25:00,
2013-01-21 05:30:00,17.2,9.7,30.26,ESE,114,2.0,2.0,72,0.00,,,0.00,Wunderground v.1.15,2013-01-21 12:30:00,
2013-01-21 05:35:00,16.9,9.4,30.26,NE,43,1.0,2.0,72,0.00,,,0.00,Wunderground v.1.15,2013-01-21 12:35:00,
2013-01-21 05:40:00,16.9,10.0,30.25,WSW,255,1.0,2.0,74,0.00,,,0.00,Wunderground v.1.15,2013-01-21 12:40:00,
2013-01-21 05:45:00,17.2,10.0,30.25,North,352,1.0,2.0,73,0.00,,,0.00,Wunderground v.1.15,2013-01-21 12:45:00,
2013-01-21 05:50:00,17.1,9.6,30.24,NE,41,1.0,2.0,72,0.00,,,0.00,Wunderground v.1.15,2013-01-21 12:50:00,
2013-01-21 06:00:00,17.5,10.0,30.24,NW,323,0.0,2.0,72,0.00,,,0.00,Wunderground v.1.15,2013-01-21 13:00:00,
2013-01-21 06:05:00,17.9,10.1,30.24,WSW,250,1.0,2.0,71,0.00,,,0.00,Wunderground v.1.15,2013-01-21 13:05:00,
2013-01-21 06:15:00,17.7,10.2,30.24,North,349,0.0,2.0,72,0.00,,,0.00,Wunderground v.1.15,2013-01-21 13:15:00,
2013-01-21 06:20:00,18.2,11.0,30.24,WNW,301,0.0,2.0,73,0.00,,,0.00,Wunderground v.1.15,2013-01-21 13:20:00,
2013-01-21 06:25:00,18.2,10.4,30.24,NNE,33,0.0,2.0,71,0.00,,,0.00,Wunderground v.1.15,2013-01-21 13:25:00,
2013-01-21 06:30:00,17.8,10.0,30.24,East,90,1.0,1.0,71,0.00,,,0.00,Wunderground v.1.15,2013-01-21 13:30:00,
2013-01-21 06:40:00,17.0,9.8,30.25,WSW,250,1.0,2.0,73,0.00,,,0.00,Wunderground v.1.15,2013-01-21 13:40:00,
2013-01-21 06:45:00,16.9,10.0,30.24,NNE,23,1.0,2.0,74,0.00,,,0.00,Wunderground v.1.15,2013-01-21 13:45:00,
2013-01-21 06:50:00,17.7,11.1,30.24,West,263,1.0,1.0,75,0.00,,,0.00,Wunderground v.1.15,2013-01-21 13:50:00,
2013-01-21 07:00:00,18.3,10.8,30.24,West,270,0.0,3.0,72,0.00,,,0.00,Wunderground v.1.15,2013-01-21 14:00:00,
2013-01-21 07:05:00,18.5,12.2,30.24,WSW,243,2.0,3.0,76,0.00,,,0.00,Wunderground v.1.15,2013-01-21 14:05:00,
2013-01-21 07:15:00,18.7,11.2,30.24,ENE,58,1.0,2.0,72,0.00,,,0.00,Wunderground v.1.15,2013-01-21 14:15:00,
2013-01-21 07:20:00,18.6,11.1,30.23,NNE,27,1.0,1.0,72,0.00,,,0.00,Wunderground v.1.15,2013-01-21 14:20:00,
2013-01-21 07:25:00,18.5,11.0,30.23,NNW,347,1.0,1.0,72,0.00,,,0.00,Wunderground v.1.15,2013-01-21 14:25:00,
2013-01-21 07:30:00,18.1,10.6,30.23,West,269,1.0,1.0,72,0.00,,,0.00,Wunderground v.1.15,2013-01-21 14:30:00,
2013-01-21 07:35:00,18.9,11.7,30.23,NNE,29,1.0,1.0,73,0.00,,,0.00,Wunderground v.1.15,2013-01-21 14:35:00,
2013-01-21 07:40:00,19.8,11.9,30.23,NNE,29,0.0,1.0,71,0.00,,,0.00,Wunderground v.1.15,2013-01-21 14:40:00,
2013-01-21 07:45:00,21.1,12.8,30.22,NNE,29,0.0,1.0,70,0.00,,,0.00,Wunderground v.1.15,2013-01-21 14:45:00,
2013-01-21 07:55:00,23.2,13.2,30.22,SSE,147,0.0,2.0,65,0.00,,,0.00,Wunderground v.1.15,2013-01-21 14:55:00,
2013-01-21 08:00:00,23.7,13.3,30.22,ESE,121,0.0,1.0,64,0.00,,,0.00,Wunderground v.1.15,2013-01-21 15:00:00,
2013-01-21 08:05:00,24.2,13.0,30.21,ESE,104,0.0,1.0,62,0.00,,,0.00,Wunderground v.1.15,2013-01-21 15:05:00,
2013-01-21 08:15:00,25.3,13.3,30.21,ESE,107,0.0,0.0,60,0.00,,,0.00,Wunderground v.1.15,2013-01-21 15:15:00,
2013-01-21 08:20:00,26.2,13.8,30.21,ESE,107,0.0,0.0,59,0.00,,,0.00,Wunderground v.1.15,2013-01-21 15:20:00,
2013-01-21 08:30:00,27.7,13.6,30.21,ENE,60,1.0,2.0,55,0.00,,,0.00,Wunderground v.1.15,2013-01-21 15:30:00,
2013-01-21 08:35:00,28.0,13.9,30.21,East,95,1.0,2.0,55,0.00,,,0.00,Wunderground v.1.15,2013-01-21 15:35:00,
2013-01-21 08:40:00,29.2,13.7,30.21,East,82,1.0,1.0,52,0.00,,,0.00,Wunderground v.1.15,2013-01-21 15:40:00,
2013-01-21 08:45:00,29.6,14.1,30.22,SSE,160,1.0,1.0,52,0.00,,,0.00,Wunderground v.1.15,2013-01-21 15:45:00,
2013-01-21 08:50:00,30.6,14.1,30.22,SE,132,1.0,1.0,50,0.00,,,0.00,Wunderground v.1.15,2013-01-21 15:50:00,
2013-01-21 08:55:00,31.3,14.3,30.22,ENE,70,1.0,1.0,49,0.00,,,0.00,Wunderground v.1.15,2013-01-21 15:55:00,
2013-01-21 09:00:00,32.6,14.1,30.22,SSE,166,1.0,1.0,46,0.00,,,0.00,Wunderground v.1.15,2013-01-21 16:00:00,
2013-01-21 09:10:00,35.0,14.7,30.22,SSE,156,0.0,2.0,43,0.00,,,0.00,Wunderground v.1.15,2013-01-21 16:10:00,
2013-01-21 09:15:00,36.1,15.7,30.22,SE,125,1.0,2.0,43,0.00,,,0.00,Wunderground v.1.15,2013-01-21 16:15:00,
2013-01-21 09:20:00,37.2,15.6,30.22,SE,129,1.0,1.0,41,0.00,,,0.00,Wunderground v.1.15,2013-01-21 16:20:00,
2013-01-21 09:25:00,37.7,14.3,30.22,SSW,200,1.0,1.0,38,0.00,,,0.00,Wunderground v.1.15,2013-01-21 16:25:00,
2013-01-21 09:30:00,37.9,15.1,30.22,ESE,118,1.0,1.0,39,0.00,,,0.00,Wunderground v.1.15,2013-01-21 16:30:00,
2013-01-21 09:35:00,38.3,14.3,30.22,ENE,75,1.0,1.0,37,0.00,,,0.00,Wunderground v.1.15,2013-01-21 16:35:00,
2013-01-21 09:45:00,38.4,14.4,30.22,ENE,77,2.0,2.0,37,0.00,,,0.00,Wunderground v.1.15,2013-01-21 16:45:00,
2013-01-21 09:50:00,38.7,14.6,30.22,SE,129,2.0,2.0,37,0.00,,,0.00,Wunderground v.1.15,2013-01-21 16:50:00,
2013-01-21 09:55:00,40.0,14.5,30.23,SSE,147,1.0,2.0,35,0.00,,,0.00,Wunderground v.1.15,2013-01-21 16:55:00,
2013-01-21 10:00:00,41.3,15.7,30.22,ESE,121,1.0,2.0,35,0.00,,,0.00,Wunderground v.1.15,2013-01-21 17:00:00,
2013-01-21 10:05:00,42.7,13.4,30.23,East,94,1.0,3.0,30,0.00,,,0.00,Wunderground v.1.15,2013-01-21 17:05:00,
2013-01-21 10:15:00,42.9,13.5,30.22,WSW,246,2.0,2.0,30,0.00,,,0.00,Wunderground v.1.15,2013-01-21 17:15:00,
2013-01-21 10:20:00,44.2,13.9,30.22,SE,124,1.0,1.0,29,0.00,,,0.00,Wunderground v.1.15,2013-01-21 17:20:00,
2013-01-21 10:25:00,45.5,13.4,30.22,ESE,122,1.0,2.0,27,0.00,,,0.00,Wunderground v.1.15,2013-01-21 17:25:00,
2013-01-21 10:30:00,45.0,13.0,30.21,SSE,155,2.0,2.0,27,0.00,,,0.00,Wunderground v.1.15,2013-01-21 17:30:00,
2013-01-21 10:35:00,45.3,13.2,30.21,East,82,2.0,2.0,27,0.00,,,0.00,Wunderground v.1.15,2013-01-21 17:35:00,
2013-01-21 10:40:00,45.5,13.4,30.21,SE,132,1.0,1.0,27,0.00,,,0.00,Wunderground v.1.15,2013-01-21 17:40:00,
2013-01-21 10:45:00,45.7,13.6,30.21,SE,145,1.0,1.0,27,0.00,,,0.00,Wunderground v.1.15,2013-01-21 17:45:00,
2013-01-21 10:55:00,46.4,17.4,30.20,East,84,3.0,4.0,31,0.00,,,0.00,Wunderground v.1.15,2013-01-21 17:55:00,
2013-01-21 11:00:00,45.5,17.3,30.20,SE,133,3.0,4.0,32,0.00,,,0.00,Wunderground v.1.15,2013-01-21 18:00:00,
2013-01-21 11:05:00,45.3,17.8,30.20,ESE,121,3.0,4.0,33,0.00,,,0.00,Wunderground v.1.15,2013-01-21 18:05:00,
2013-01-21 11:15:00,45.6,17.4,30.20,NE,49,2.0,2.0,32,0.00,,,0.00,Wunderground v.1.15,2013-01-21 18:15:00,
2013-01-21 11:20:00,45.4,17.9,30.20,SE,142,2.0,2.0,33,0.00,,,0.00,Wunderground v.1.15,2013-01-21 18:20:00,
2013-01-21 11:25:00,45.3,17.8,30.20,SE,124,2.0,3.0,33,0.00,,,0.00,Wunderground v.1.15,2013-01-21 18:25:00,
2013-01-21 11:35:00,45.7,17.5,30.19,SE,132,3.0,3.0,32,0.00,,,0.00,Wunderground v.1.15,2013-01-21 18:35:00,
2013-01-21 11:40:00,46.4,17.4,30.18,ENE,62,3.0,3.0,31,0.00,,,0.00,Wunderground v.1.15,2013-01-21 18:40:00,
2013-01-21 11:45:00,46.5,17.4,30.18,East,89,2.0,4.0,31,0.00,,,0.00,Wunderground v.1.15,2013-01-21 18:45:00,
2013-01-21 11:50:00,47.1,18.0,30.18,ESE,121,3.0,5.0,31,0.00,,,0.00,Wunderground v.1.15,2013-01-21 18:50:00,
2013-01-21 11:55:00,47.2,17.3,30.17,SE,129,3.0,5.0,30,0.00,,,0.00,Wunderground v.1.15,2013-01-21 18:55:00,
2013-01-21 12:00:00,47.9,17.9,30.17,SSW,195,2.0,4.0,30,0.00,,,0.00,Wunderground v.1.15,2013-01-21 19:00:00,
2013-01-21 12:10:00,48.5,16.8,30.17,East,98,2.0,2.0,28,0.00,,,0.00,Wunderground v.1.15,2013-01-21 19:10:00,
2013-01-21 12:15:00,48.8,16.2,30.17,ESE,105,2.0,2.0,27,0.00,,,0.00,Wunderground v.1.15,2013-01-21 19:15:00,
2013-01-21 12:20:00,48.7,16.2,30.16,South,176,2.0,3.0,27,0.00,,,0.00,Wunderground v.1.15,2013-01-21 19:20:00,
2013-01-21 12:25:00,48.9,15.5,30.16,NE,56,2.0,4.0,26,0.00,,,0.00,Wunderground v.1.15,2013-01-21 19:25:00,
2013-01-21 12:30:00,48.9,16.3,30.16,SE,146,2.0,6.0,27,0.00,,,0.00,Wunderground v.1.15,2013-01-21 19:30:00,
2013-01-21 12:35:00,48.9,15.5,30.16,SSE,160,3.0,6.0,26,0.00,,,0.00,Wunderground v.1.15,2013-01-21 19:35:00,
2013-01-21 12:45:00,49.2,12.9,30.16,ENE,68,2.0,4.0,23,0.00,,,0.00,Wunderground v.1.15,2013-01-21 19:45:00,
2013-01-21 12:50:00,49.5,13.2,30.15,SE,127,2.0,2.0,23,0.00,,,0.00,Wunderground v.1.15,2013-01-21 19:50:00,
2013-01-21 12:55:00,49.9,14.5,30.15,NE,56,2.0,5.0,24,0.00,,,0.00,Wunderground v.1.15,2013-01-21 19:55:00,
2013-01-21 13:00:00,50.3,13.9,30.14,ESE,107,2.0,2.0,23,0.00,,,0.00,Wunderground v.1.15,2013-01-21 20:00:00,
2013-01-21 13:05:00,50.7,13.2,30.14,East,84,2.0,2.0,22,0.00,,,0.00,Wunderground v.1.15,2013-01-21 20:05:00,
2013-01-21 13:15:00,51.9,13.1,30.14,South,173,2.0,2.0,21,0.00,,,0.00,Wunderground v.1.15,2013-01-21 20:15:00,
2013-01-21 13:25:00,51.8,13.0,30.14,East,101,2.0,2.0,21,0.00,,,0.00,Wunderground v.1.15,2013-01-21 20:25:00,
2013-01-21 13:30:00,51.9,13.1,30.13,ENE,75,2.0,3.0,21,0.00,,,0.00,Wunderground v.1.15,2013-01-21 20:30:00,
2013-01-21 13:35:00,52.4,12.4,30.13,SE,137,2.0,3.0,20,0.00,,,0.00,Wunderground v.1.15,2013-01-21 20:35:00,
2013-01-21 13:40:00,52.4,12.4,30.13,NE,48,2.0,4.0,20,0.00,,,0.00,Wunderground v.1.15,2013-01-21 20:40:00,
2013-01-21 13:45:00,52.5,12.5,30.13,SE,129,2.0,4.0,20,0.00,,,0.00,Wunderground v.1.15,2013-01-21 20:45:00,
2013-01-21 13:50:00,53.2,11.9,30.12,East,98,2.0,2.0,19,0.00,,,0.00,Wunderground v.1.15,2013-01-21 20:50:00,
2013-01-21 14:00:00,53.4,13.3,30.12,ESE,108,3.0,3.0,20,0.00,,,0.00,Wunderground v.1.15,2013-01-21 21:00:00,
2013-01-21 14:05:00,53.2,13.1,30.12,SE,145,3.0,3.0,20,0.00,,,0.00,Wunderground v.1.15,2013-01-21 21:05:00,
2013-01-21 14:15:00,53.3,13.2,30.11,East,84,2.0,3.0,20,0.00,,,0.00,Wunderground v.1.15,2013-01-21 21:15:00,
2013-01-21 14:20:00,53.8,12.4,30.11,SSE,159,2.0,4.0,19,0.00,,,0.00,Wunderground v.1.15,2013-01-21 21:20:00,
2013-01-21 14:25:00,53.7,12.4,30.11,ESE,107,3.0,4.0,19,0.00,,,0.00,Wunderground v.1.15,2013-01-21 21:25:00,
2013-01-21 14:35:00,53.1,13.0,30.11,SE,142,3.0,3.0,20,0.00,,,0.00,Wunderground v.1.15,2013-01-21 21:35:00,
2013-01-21 14:40:00,53.1,13.0,30.11,ESE,115,2.0,2.0,20,0.00,,,0.00,Wunderground v.1.15,2013-01-21 21:40:00,
2013-01-21 14:45:00,53.0,12.9,30.10,South,191,2.0,2.0,20,0.00,,,0.00,Wunderground v.1.15,2013-01-21 21:45:00,
2013-01-21 14:50:00,53.0,14.0,30.10,SE,138,2.0,2.0,21,0.00,,,0.00,Wunderground v.1.15,2013-01-21 21:50:00,
2013-01-21 14:55:00,52.7,13.8,30.09,ENE,64,2.0,2.0,21,0.00,,,0.00,Wunderground v.1.15,2013-01-21 21:55:00,
2013-01-21 15:00:00,52.7,13.8,30.09,SSE,159,2.0,2.0,21,0.00,,,0.00,Wunderground v.1.15,2013-01-21 22:00:00,
2013-01-21 15:05:00,52.9,14.0,30.09,SE,142,1.0,2.0,21,0.00,,,0.00,Wunderground v.1.15,2013-01-21 22:05:00,
2013-01-21 15:15:00,54.6,9.2,30.09,SW,218,2.0,4.0,16,0.00,,,0.00,Wunderground v.1.15,2013-01-21 22:15:00,
2013-01-21 15:20:00,55.3,8.4,30.09,WSW,242,4.0,5.0,15,0.00,,,0.00,Wunderground v.1.15,2013-01-21 22:20:00,
2013-01-21 15:25:00,55.7,8.7,30.09,SW,227,5.0,5.0,15,0.00,,,0.00,Wunderground v.1.15,2013-01-21 22:25:00,
2013-01-21 15:30:00,55.8,8.8,30.09,WSW,257,5.0,5.0,15,0.00,,,0.00,Wunderground v.1.15,2013-01-21 22:30:00,
2013-01-21 15:35:00,55.9,8.8,30.09,WSW,248,4.0,5.0,15,0.00,,,0.00,Wunderground v.1.15,2013-01-21 22:35:00,
2013-01-21 15:40:00,55.9,8.8,30.09,SSW,204,4.0,4.0,15,0.00,,,0.00,Wunderground v.1.15,2013-01-21 22:40:00,
2013-01-21 15:50:00,55.7,7.1,30.10,SW,218,3.0,3.0,14,0.00,,,0.00,Wunderground v.1.15,2013-01-21 22:50:00,
2013-01-21 15:55:00,55.6,7.1,30.09,South,173,3.0,3.0,14,0.00,,,0.00,Wunderground v.1.15,2013-01-21 22:55:00,
2013-01-21 16:00:00,55.5,7.0,30.10,WSW,240,3.0,5.0,14,0.00,,,0.00,Wunderground v.1.15,2013-01-21 23:00:00,
2013-01-21 16:05:00,54.9,6.5,30.10,SW,218,4.0,5.0,14,0.00,,,0.00,Wunderground v.1.15,2013-01-21 23:05:00,
2013-01-21 16:15:00,54.1,5.9,30.10,WSW,256,4.0,5.0,14,0.00,,,0.00,Wunderground v.1.15,2013-01-21 23:15:00,
2013-01-21 16:25:00,53.8,4.0,30.10,West,260,4.0,4.0,13,0.00,,,0.00,Wunderground v.1.15,2013-01-21 23:25:00,
2013-01-21 16:30:00,53.3,3.6,30.10,West,267,4.0,4.0,13,0.00,,,0.00,Wunderground v.1.15,2013-01-21 23:30:00,
2013-01-21 16:35:00,52.6,3.1,30.10,West,280,4.0,4.0,13,0.00,,,0.00,Wunderground v.1.15,2013-01-21 23:35:00,
2013-01-21 16:40:00,52.0,2.6,30.10,WNW,294,4.0,4.0,13,0.00,,,0.00,Wunderground v.1.15,2013-01-21 23:40:00,
2013-01-21 16:45:00,51.5,2.2,30.10,WNW,297,4.0,4.0,13,0.00,,,0.00,Wunderground v.1.15,2013-01-21 23:45:00,
2013-01-21 16:50:00,51.1,3.5,30.10,WSW,243,5.0,7.0,14,0.00,,,0.00,Wunderground v.1.15,2013-01-21 23:50:00,
2013-01-21 16:55:00,50.8,3.2,30.10,WNW,289,4.0,7.0,14,0.00,,,0.00,Wunderground v.1.15,2013-01-21 23:55:00,
2013-01-21 17:00:00,50.4,2.9,30.10,NW,326,5.0,7.0,14,0.00,,,0.00,Wunderground v.1.15,2013-01-22 00:00:00,
2013-01-21 17:10:00,49.8,2.4,30.10,West,265,6.0,6.0,14,0.00,,,0.00,Wunderground v.1.15,2013-01-22 00:10:00,
2013-01-21 17:15:00,49.6,2.3,30.10,WSW,253,5.0,9.0,14,0.00,,,0.00,Wunderground v.1.15,2013-01-22 00:15:00,
2013-01-21 17:20:00,49.5,2.2,30.10,WSW,245,6.0,6.0,14,0.00,,,0.00,Wunderground v.1.15,2013-01-22 00:20:00,
2013-01-21 17:25:00,49.4,2.1,30.10,SW,228,6.0,6.0,14,0.00,,,0.00,Wunderground v.1.15,2013-01-22 00:25:00,
2013-01-21 17:30:00,49.4,2.1,30.10,West,259,5.0,5.0,14,0.00,,,0.00,Wunderground v.1.15,2013-01-22 00:30:00,
2013-01-21 17:35:00,49.2,1.9,30.10,WNW,301,6.0,6.0,14,0.00,,,0.00,Wunderground v.1.15,2013-01-22 00:35:00,
2013-01-21 17:45:00,49.0,1.8,30.10,WSW,256,5.0,14.0,14,0.00,,,0.00,Wunderground v.1.15,2013-01-22 00:45:00,
2013-01-21 17:50:00,48.8,1.6,30.10,WNW,303,5.0,7.0,14,0.00,,,0.00,Wunderground v.1.15,2013-01-22 00:50:00,
2013-01-21 17:55:00,48.8,1.6,30.10,WNW,284,5.0,8.0,14,0.00,,,0.00,Wunderground v.1.15,2013-01-22 00:55:00,
2013-01-21 18:00:00,48.7,1.5,30.10,WSW,248,5.0,11.0,14,0.00,,,0.00,Wunderground v.1.15,2013-01-22 01:00:00,
2013-01-21 18:05:00,48.6,1.5,30.10,WSW,255,6.0,11.0,14,0.00,,,0.00,Wunderground v.1.15,2013-01-22 01:05:00,
2013-01-21 18:15:00,48.1,1.1,30.10,SSW,211,4.0,7.0,14,0.00,,,0.00,Wunderground v.1.15,2013-01-22 01:15:00,
2013-01-21 18:20:00,48.1,1.1,30.10,WSW,246,5.0,5.0,14,0.00,,,0.00,Wunderground v.1.15,2013-01-22 01:20:00,
2013-01-21 18:25:00,47.7,0.7,30.10,WNW,287,4.0,5.0,14,0.00,,,0.00,Wunderground v.1.15,2013-01-22 01:25:00,
2013-01-21 18:30:00,47.9,0.9,30.10,SSW,197,4.0,4.0,14,0.00,,,0.00,Wunderground v.1.15,2013-01-22 01:30:00,
2013-01-21 18:35:00,47.8,0.8,30.10,SW,224,4.0,4.0,14,0.00,,,0.00,Wunderground v.1.15,2013-01-22 01:35:00,
2013-01-21 18:40:00,47.7,0.7,30.10,West,260,3.0,3.0,14,0.00,,,0.00,Wunderground v.1.15,2013-01-22 01:40:00,
2013-01-21 18:45:00,47.5,-1.0,30.09,SW,231,2.0,4.0,13,0.00,,,0.00,Wunderground v.1.15,2013-01-22 01:45:00,
2013-01-21 18:55:00,47.7,-0.8,30.09,West,266,3.0,3.0,13,0.00,,,0.00,Wunderground v.1.15,2013-01-22 01:55:00,
2013-01-21 19:00:00,47.6,-0.9,30.09,WSW,240,3.0,4.0,13,0.00,,,0.00,Wunderground v.1.15,2013-01-22 02:00:00,
2013-01-21 19:05:00,47.7,-0.8,30.09,WNW,287,2.0,4.0,13,0.00,,,0.00,Wunderground v.1.15,2013-01-22 02:05:00,
2013-01-21 19:15:00,47.9,-0.7,30.10,WSW,242,2.0,2.0,13,0.00,,,0.00,Wunderground v.1.15,2013-01-22 02:15:00,
2013-01-21 19:20:00,47.2,-1.2,30.10,WNW,284,1.0,1.0,13,0.00,,,0.00,Wunderground v.1.15,2013-01-22 02:20:00,
2013-01-21 19:30:00,47.1,-1.3,30.10,West,277,2.0,2.0,13,0.00,,,0.00,Wunderground v.1.15,2013-01-22 02:30:00,
2013-01-21 19:35:00,47.1,-1.3,30.10,WSW,255,2.0,2.0,13,0.00,,,0.00,Wunderground v.1.15,2013-01-22 02:35:00,
2013-01-21 19:40:00,47.3,-1.2,30.10,WSW,246,2.0,2.0,13,0.00,,,0.00,Wunderground v.1.15,2013-01-22 02:40:00,
2013-01-21 19:45:00,47.2,-1.2,30.11,NE,56,2.0,2.0,13,0.00,,,0.00,Wunderground v.1.15,2013-01-22 02:45:00,
2013-01-21 19:50:00,46.2,-2.0,30.11,West,280,1.0,2.0,13,0.00,,,0.00,Wunderground v.1.15,2013-01-22 02:50:00,
2013-01-21 19:55:00,47.0,-1.4,30.11,WNW,301,1.0,2.0,13,0.00,,,0.00,Wunderground v.1.15,2013-01-22 02:55:00,
2013-01-21 20:00:00,47.4,-1.1,30.10,West,266,1.0,4.0,13,0.00,,,0.00,Wunderground v.1.15,2013-01-22 03:00:00,
2013-01-21 20:10:00,46.6,-1.7,30.11,WNW,285,3.0,3.0,13,0.00,,,0.00,Wunderground v.1.15,2013-01-22 03:10:00,
2013-01-21 20:15:00,47.1,-1.3,30.11,West,276,3.0,5.0,13,0.00,,,0.00,Wunderground v.1.15,2013-01-22 03:15:00,
2013-01-21 20:20:00,47.0,-1.4,30.11,SW,217,3.0,3.0,13,0.00,,,0.00,Wunderground v.1.15,2013-01-22 03:20:00,
2013-01-21 20:25:00,47.0,-1.4,30.11,WSW,255,4.0,4.0,13,0.00,,,0.00,Wunderground v.1.15,2013-01-22 03:25:00,
2013-01-21 20:30:00,47.0,-1.4,30.11,West,264,4.0,8.0,13,0.00,,,0.00,Wunderground v.1.15,2013-01-22 03:30:00,
2013-01-21 20:35:00,47.5,-1.0,30.10,NNW,330,5.0,8.0,13,0.00,,,0.00,Wunderground v.1.15,2013-01-22 03:35:00,
2013-01-21 20:45:00,47.8,-0.8,30.10,West,275,5.0,7.0,13,0.00,,,0.00,Wunderground v.1.15,2013-01-22 03:45:00,
2013-01-21 20:50:00,47.9,-0.7,30.10,SW,233,6.0,9.0,13,0.00,,,0.00,Wunderground v.1.15,2013-01-22 03:50:00,
2013-01-21 20:55:00,47.8,-0.8,30.10,West,264,6.0,9.0,13,0.00,,,0.00,Wunderground v.1.15,2013-01-22 03:55:00,
2013-01-21 21:00:00,47.7,-0.8,30.10,West,274,6.0,6.0,13,0.00,,,0.00,Wunderground v.1.15,2013-01-22 04:00:00,
2013-01-21 21:05:00,47.8,-0.8,30.10,West,281,6.0,6.0,13,0.00,,,0.00,Wunderground v.1.15,2013-01-22 04:05:00,
2013-01-21 21:15:00,47.8,-0.8,30.10,West,275,5.0,6.0,13,0.00,,,0.00,Wunderground v.1.15,2013-01-22 04:15:00,
2013-01-21 21:20:00,47.8,-0.8,30.10,WNW,300,5.0,5.0,13,0.00,,,0.00,Wunderground v.1.15,2013-01-22 04:20:00,
2013-01-21 21:25:00,48.0,-0.6,30.09,ENE,65,5.0,5.0,13,0.00,,,0.00,Wunderground v.1.15,2013-01-22 04:25:00,
2013-01-21 21:30:00,48.2,-0.5,30.09,West,265,5.0,6.0,13,0.00,,,0.00,Wunderground v.1.15,2013-01-22 04:30:00,
2013-01-21 21:35:00,48.2,-0.5,30.09,WSW,252,4.0,6.0,13,0.00,,,0.00,Wunderground v.1.15,2013-01-22 04:35:00,
2013-01-21 21:41:00,48.2,-0.5,30.09,NNE,20,3.0,3.0,13,0.00,,,0.00,Wunderground v.1.15,2013-01-22 04:41:00,
2013-01-21 21:55:00,48.3,-0.4,30.08,NNW,329,6.0,6.0,13,0.00,,,0.00,Wunderground v.1.15,2013-01-22 04:55:00,
2013-01-21 22:00:00,48.4,-0.3,30.08,West,267,6.0,6.0,13,0.00,,,0.00,Wunderground v.1.15,2013-01-22 05:00:00,
2013-01-21 22:45:00,47.6,-0.9,30.07,WNW,289,3.0,3.0,13,0.00,,,0.00,Wunderground v.1.15,2013-01-22 05:45:00,
2013-01-21 22:50:00,47.6,-0.9,30.06,ENE,64,3.0,3.0,13,0.00,,,0.00,Wunderground v.1.15,2013-01-22 05:50:00,
2013-01-21 23:00:00,48.1,-2.2,30.06,WNW,291,5.0,5.0,12,0.00,,,0.00,Wunderground v.1.15,2013-01-22 06:00:00,
2013-01-21 23:05:00,48.5,-1.9,30.05,NNW,347,7.0,7.0,12,0.00,,,0.00,Wunderground v.1.15,2013-01-22 06:05:00,
2013-01-21 23:16:00,48.5,-1.9,30.05,NNW,348,6.0,7.0,12,0.00,,,0.00,Wunderground v.1.15,2013-01-22 06:16:00,
2013-01-21 23:36:00,48.7,-3.6,30.04,WNW,293,5.0,5.0,11,0.00,,,0.00,Wunderground v.1.15,2013-01-22 06:36:00,
2013-01-21 23:50:00,49.0,-5.3,30.03,West,278,6.0,6.0,10,0.00,,,0.00,Wunderground v.1.15,2013-01-22 06:50:00,